sensor_id;sensor_type;location;lat;lon;timestamp;P1;durP1;ratioP1;P2;durP2;ratioP2
76636;SDS011;65532;52.124;5.480;2023-08-06T00:00:28;6.15;;;2.40;;
76636;SDS011;65532;52.124;5.480;2023-08-06T00:02:54;5.93;;;3.95;;
76636;SDS011;65532;52.124;5.480;2023-08-06T00:05:21;5.80;;;2.00;;
76636;SDS011;65532;52.124;5.480;2023-08-06T00:07:48;5.18;;;3.13;;
76636;SDS011;65532;52.124;5.480;2023-08-06T00:10:15;8.50;;;3.72;;
76636;SDS011;65532;52.124;5.480;2023-08-06T00:12:42;6.22;;;2.28;;
76636;SDS011;65532;52.124;5.480;2023-08-06T00:15:10;6.60;;;3.53;;
76636;SDS011;65532;52.124;5.480;2023-08-06T00:17:37;5.50;;;2.78;;
76636;SDS011;65532;52.124;5.480;2023-08-06T00:20:04;6.20;;;2.13;;
76636;SDS011;65532;52.124;5.480;2023-08-06T00:22:35;4.43;;;2.75;;
76636;SDS011;65532;52.124;5.480;2023-08-06T00:25:03;5.90;;;2.85;;
76636;SDS011;65532;52.124;5.480;2023-08-06T00:27:31;5.95;;;3.47;;
76636;SDS011;65532;52.124;5.480;2023-08-06T00:29:58;5.85;;;2.40;;
76636;SDS011;65532;52.124;5.480;2023-08-06T00:32:25;8.85;;;3.28;;
76636;SDS011;65532;52.124;5.480;2023-08-06T00:34:51;7.50;;;5.07;;
76636;SDS011;65532;52.124;5.480;2023-08-06T00:37:18;6.10;;;2.85;;
76636;SDS011;65532;52.124;5.480;2023-08-06T00:39:45;6.30;;;3.33;;
76636;SDS011;65532;52.124;5.480;2023-08-06T00:42:12;5.68;;;2.60;;
76636;SDS011;65532;52.124;5.480;2023-08-06T00:44:38;8.38;;;4.38;;
76636;SDS011;65532;52.124;5.480;2023-08-06T00:47:07;5.28;;;2.92;;
76636;SDS011;65532;52.124;5.480;2023-08-06T00:49:35;6.75;;;3.35;;
76636;SDS011;65532;52.124;5.480;2023-08-06T00:52:06;6.13;;;2.45;;
76636;SDS011;65532;52.124;5.480;2023-08-06T00:54:36;7.65;;;3.50;;
76636;SDS011;65532;52.124;5.480;2023-08-06T00:57:03;6.13;;;2.78;;
76636;SDS011;65532;52.124;5.480;2023-08-06T00:59:31;8.10;;;3.15;;
76636;SDS011;65532;52.124;5.480;2023-08-06T01:01:58;6.85;;;3.13;;
76636;SDS011;65532;52.124;5.480;2023-08-06T01:04:25;8.00;;;4.13;;
76636;SDS011;65532;52.124;5.480;2023-08-06T01:06:59;6.82;;;2.83;;
76636;SDS011;65532;52.124;5.480;2023-08-06T01:14:48;6.45;;;3.20;;
76636;SDS011;65532;52.124;5.480;2023-08-06T01:17:29;7.25;;;2.47;;
76636;SDS011;65532;52.124;5.480;2023-08-06T01:19:57;6.75;;;3.20;;
76636;SDS011;65532;52.124;5.480;2023-08-06T01:22:23;8.15;;;3.38;;
76636;SDS011;65532;52.124;5.480;2023-08-06T01:24:50;6.97;;;3.13;;
76636;SDS011;65532;52.124;5.480;2023-08-06T01:27:20;7.75;;;3.45;;
76636;SDS011;65532;52.124;5.480;2023-08-06T01:29:56;7.22;;;4.05;;
76636;SDS011;65532;52.124;5.480;2023-08-06T01:32:34;9.07;;;4.88;;
76636;SDS011;65532;52.124;5.480;2023-08-06T01:35:02;9.07;;;4.13;;
76636;SDS011;65532;52.124;5.480;2023-08-06T01:37:30;10.30;;;2.53;;
76636;SDS011;65532;52.124;5.480;2023-08-06T01:39:57;9.05;;;4.45;;
76636;SDS011;65532;52.124;5.480;2023-08-06T01:42:24;9.00;;;4.22;;
76636;SDS011;65532;52.124;5.480;2023-08-06T01:44:50;6.68;;;4.82;;
76636;SDS011;65532;52.124;5.480;2023-08-06T01:47:17;9.50;;;4.63;;
76636;SDS011;65532;52.124;5.480;2023-08-06T01:49:44;8.68;;;5.10;;
76636;SDS011;65532;52.124;5.480;2023-08-06T01:52:10;10.77;;;4.90;;
76636;SDS011;65532;52.124;5.480;2023-08-06T01:54:37;9.82;;;4.00;;
76636;SDS011;65532;52.124;5.480;2023-08-06T01:57:03;7.43;;;3.40;;
76636;SDS011;65532;52.124;5.480;2023-08-06T01:59:31;7.22;;;3.92;;
76636;SDS011;65532;52.124;5.480;2023-08-06T02:01:57;11.48;;;4.22;;
76636;SDS011;65532;52.124;5.480;2023-08-06T02:04:24;9.05;;;5.18;;
76636;SDS011;65532;52.124;5.480;2023-08-06T02:06:51;8.40;;;4.40;;
76636;SDS011;65532;52.124;5.480;2023-08-06T02:09:17;12.95;;;4.70;;
76636;SDS011;65532;52.124;5.480;2023-08-06T02:11:44;9.70;;;4.85;;
76636;SDS011;65532;52.124;5.480;2023-08-06T02:14:10;9.00;;;5.75;;
76636;SDS011;65532;52.124;5.480;2023-08-06T02:16:38;9.80;;;4.07;;
76636;SDS011;65532;52.124;5.480;2023-08-06T02:19:05;13.77;;;5.55;;
76636;SDS011;65532;52.124;5.480;2023-08-06T02:21:31;11.40;;;5.15;;
76636;SDS011;65532;52.124;5.480;2023-08-06T02:23:58;12.10;;;6.00;;
76636;SDS011;65532;52.124;5.480;2023-08-06T02:26:24;8.93;;;3.85;;
76636;SDS011;65532;52.124;5.480;2023-08-06T02:28:51;9.90;;;4.25;;
76636;SDS011;65532;52.124;5.480;2023-08-06T02:31:17;10.02;;;5.32;;
76636;SDS011;65532;52.124;5.480;2023-08-06T02:33:44;9.82;;;4.93;;
76636;SDS011;65532;52.124;5.480;2023-08-06T02:36:10;6.97;;;3.67;;
76636;SDS011;65532;52.124;5.480;2023-08-06T02:38:37;8.23;;;4.47;;
76636;SDS011;65532;52.124;5.480;2023-08-06T02:41:04;8.80;;;4.15;;
76636;SDS011;65532;52.124;5.480;2023-08-06T02:43:31;10.55;;;4.53;;
76636;SDS011;65532;52.124;5.480;2023-08-06T02:45:58;8.55;;;3.67;;
76636;SDS011;65532;52.124;5.480;2023-08-06T02:48:26;10.23;;;4.28;;
76636;SDS011;65532;52.124;5.480;2023-08-06T02:50:52;7.35;;;4.70;;
76636;SDS011;65532;52.124;5.480;2023-08-06T02:53:23;7.38;;;4.60;;
76636;SDS011;65532;52.124;5.480;2023-08-06T02:55:49;7.93;;;5.18;;
76636;SDS011;65532;52.124;5.480;2023-08-06T02:58:20;8.75;;;4.97;;
76636;SDS011;65532;52.124;5.480;2023-08-06T03:01:06;6.80;;;3.90;;
76636;SDS011;65532;52.124;5.480;2023-08-06T03:03:59;8.48;;;4.93;;
76636;SDS011;65532;52.124;5.480;2023-08-06T03:06:32;6.50;;;2.97;;
76636;SDS011;65532;52.124;5.480;2023-08-06T03:09:00;8.85;;;5.05;;
76636;SDS011;65532;52.124;5.480;2023-08-06T03:11:27;7.72;;;3.83;;
76636;SDS011;65532;52.124;5.480;2023-08-06T03:13:59;6.95;;;3.97;;
76636;SDS011;65532;52.124;5.480;2023-08-06T03:16:26;7.72;;;4.10;;
76636;SDS011;65532;52.124;5.480;2023-08-06T03:18:53;8.40;;;4.38;;
76636;SDS011;65532;52.124;5.480;2023-08-06T03:21:20;9.98;;;4.47;;
76636;SDS011;65532;52.124;5.480;2023-08-06T03:23:47;9.18;;;5.10;;
76636;SDS011;65532;52.124;5.480;2023-08-06T03:26:17;8.35;;;4.50;;
76636;SDS011;65532;52.124;5.480;2023-08-06T03:28:45;8.30;;;3.72;;
76636;SDS011;65532;52.124;5.480;2023-08-06T03:31:12;8.55;;;3.80;;
76636;SDS011;65532;52.124;5.480;2023-08-06T03:33:42;7.63;;;3.83;;
76636;SDS011;65532;52.124;5.480;2023-08-06T03:36:13;7.28;;;3.90;;
76636;SDS011;65532;52.124;5.480;2023-08-06T03:38:41;7.47;;;5.05;;
76636;SDS011;65532;52.124;5.480;2023-08-06T03:41:10;8.07;;;4.05;;
76636;SDS011;65532;52.124;5.480;2023-08-06T03:43:37;8.30;;;3.72;;
76636;SDS011;65532;52.124;5.480;2023-08-06T03:46:08;8.75;;;4.00;;
76636;SDS011;65532;52.124;5.480;2023-08-06T03:48:36;10.20;;;4.70;;
76636;SDS011;65532;52.124;5.480;2023-08-06T03:51:02;10.10;;;3.55;;
76636;SDS011;65532;52.124;5.480;2023-08-06T03:53:29;8.85;;;5.15;;
76636;SDS011;65532;52.124;5.480;2023-08-06T03:55:56;9.27;;;3.90;;
76636;SDS011;65532;52.124;5.480;2023-08-06T03:58:26;8.98;;;4.57;;
76636;SDS011;65532;52.124;5.480;2023-08-06T04:00:59;9.05;;;4.60;;
76636;SDS011;65532;52.124;5.480;2023-08-06T04:03:31;8.27;;;4.03;;
76636;SDS011;65532;52.124;5.480;2023-08-06T04:05:58;13.15;;;6.07;;
76636;SDS011;65532;52.124;5.480;2023-08-06T04:08:24;9.93;;;4.43;;
76636;SDS011;65532;52.124;5.480;2023-08-06T04:10:51;11.50;;;4.57;;
76636;SDS011;65532;52.124;5.480;2023-08-06T04:13:18;9.20;;;4.45;;
76636;SDS011;65532;52.124;5.480;2023-08-06T04:15:46;9.45;;;4.78;;
76636;SDS011;65532;52.124;5.480;2023-08-06T04:18:13;9.32;;;4.85;;
76636;SDS011;65532;52.124;5.480;2023-08-06T04:20:44;10.80;;;6.40;;
76636;SDS011;65532;52.124;5.480;2023-08-06T04:23:15;9.10;;;4.70;;
76636;SDS011;65532;52.124;5.480;2023-08-06T04:25:42;12.85;;;6.43;;
76636;SDS011;65532;52.124;5.480;2023-08-06T04:28:08;9.30;;;4.88;;
76636;SDS011;65532;52.124;5.480;2023-08-06T04:30:36;10.73;;;4.82;;
76636;SDS011;65532;52.124;5.480;2023-08-06T04:33:03;11.70;;;5.25;;
76636;SDS011;65532;52.124;5.480;2023-08-06T04:35:31;12.20;;;5.53;;
76636;SDS011;65532;52.124;5.480;2023-08-06T04:37:57;13.45;;;6.68;;
76636;SDS011;65532;52.124;5.480;2023-08-06T04:40:24;15.02;;;6.03;;
76636;SDS011;65532;52.124;5.480;2023-08-06T04:42:51;12.30;;;5.53;;
76636;SDS011;65532;52.124;5.480;2023-08-06T04:45:19;11.48;;;6.20;;
76636;SDS011;65532;52.124;5.480;2023-08-06T04:47:45;12.90;;;6.50;;
76636;SDS011;65532;52.124;5.480;2023-08-06T04:50:12;13.07;;;7.00;;
76636;SDS011;65532;52.124;5.480;2023-08-06T04:52:38;13.43;;;6.15;;
76636;SDS011;65532;52.124;5.480;2023-08-06T04:55:05;14.07;;;7.30;;
76636;SDS011;65532;52.124;5.480;2023-08-06T04:57:32;14.13;;;8.30;;
76636;SDS011;65532;52.124;5.480;2023-08-06T04:59:59;15.45;;;7.88;;
76636;SDS011;65532;52.124;5.480;2023-08-06T05:02:26;15.00;;;7.40;;
76636;SDS011;65532;52.124;5.480;2023-08-06T05:04:52;14.77;;;7.68;;
76636;SDS011;65532;52.124;5.480;2023-08-06T05:07:19;12.75;;;7.28;;
76636;SDS011;65532;52.124;5.480;2023-08-06T05:09:45;11.35;;;6.03;;
76636;SDS011;65532;52.124;5.480;2023-08-06T05:12:12;14.63;;;7.10;;
76636;SDS011;65532;52.124;5.480;2023-08-06T05:14:39;16.35;;;7.30;;
76636;SDS011;65532;52.124;5.480;2023-08-06T05:17:05;12.88;;;6.25;;
76636;SDS011;65532;52.124;5.480;2023-08-06T05:19:32;14.25;;;7.63;;
76636;SDS011;65532;52.124;5.480;2023-08-06T05:21:58;12.45;;;6.63;;
76636;SDS011;65532;52.124;5.480;2023-08-06T05:24:25;12.38;;;7.78;;
76636;SDS011;65532;52.124;5.480;2023-08-06T05:26:51;12.00;;;5.72;;
76636;SDS011;65532;52.124;5.480;2023-08-06T05:29:18;13.32;;;7.57;;
76636;SDS011;65532;52.124;5.480;2023-08-06T05:31:44;13.35;;;8.32;;
76636;SDS011;65532;52.124;5.480;2023-08-06T05:34:11;11.70;;;6.18;;
76636;SDS011;65532;52.124;5.480;2023-08-06T05:36:37;11.73;;;6.03;;
76636;SDS011;65532;52.124;5.480;2023-08-06T05:39:04;12.93;;;7.20;;
76636;SDS011;65532;52.124;5.480;2023-08-06T05:41:31;13.38;;;7.43;;
76636;SDS011;65532;52.124;5.480;2023-08-06T05:43:57;14.75;;;6.53;;
76636;SDS011;65532;52.124;5.480;2023-08-06T05:46:24;11.55;;;6.15;;
76636;SDS011;65532;52.124;5.480;2023-08-06T05:48:51;16.23;;;7.40;;
76636;SDS011;65532;52.124;5.480;2023-08-06T05:51:17;13.75;;;7.13;;
76636;SDS011;65532;52.124;5.480;2023-08-06T05:53:44;13.98;;;7.45;;
76636;SDS011;65532;52.124;5.480;2023-08-06T05:56:12;14.02;;;7.22;;
76636;SDS011;65532;52.124;5.480;2023-08-06T05:58:38;14.38;;;7.05;;
76636;SDS011;65532;52.124;5.480;2023-08-06T06:01:05;13.88;;;8.18;;
76636;SDS011;65532;52.124;5.480;2023-08-06T06:03:32;13.85;;;7.60;;
76636;SDS011;65532;52.124;5.480;2023-08-06T06:05:59;12.40;;;7.90;;
76636;SDS011;65532;52.124;5.480;2023-08-06T06:08:27;13.70;;;5.68;;
76636;SDS011;65532;52.124;5.480;2023-08-06T06:10:53;13.40;;;5.95;;
76636;SDS011;65532;52.124;5.480;2023-08-06T06:13:20;11.18;;;5.22;;
76636;SDS011;65532;52.124;5.480;2023-08-06T06:15:46;11.15;;;5.60;;
76636;SDS011;65532;52.124;5.480;2023-08-06T06:18:13;12.50;;;7.63;;
76636;SDS011;65532;52.124;5.480;2023-08-06T06:20:40;11.05;;;6.68;;
76636;SDS011;65532;52.124;5.480;2023-08-06T06:23:06;15.85;;;6.43;;
76636;SDS011;65532;52.124;5.480;2023-08-06T06:25:33;11.80;;;5.80;;
76636;SDS011;65532;52.124;5.480;2023-08-06T06:27:59;12.57;;;7.13;;
76636;SDS011;65532;52.124;5.480;2023-08-06T06:30:26;14.55;;;8.02;;
76636;SDS011;65532;52.124;5.480;2023-08-06T06:32:52;11.65;;;6.22;;
76636;SDS011;65532;52.124;5.480;2023-08-06T06:35:19;14.35;;;8.50;;
76636;SDS011;65532;52.124;5.480;2023-08-06T06:37:45;11.85;;;7.53;;
76636;SDS011;65532;52.124;5.480;2023-08-06T06:40:12;12.73;;;7.65;;
76636;SDS011;65532;52.124;5.480;2023-08-06T06:42:39;15.90;;;6.65;;
76636;SDS011;65532;52.124;5.480;2023-08-06T06:45:07;11.95;;;6.30;;
76636;SDS011;65532;52.124;5.480;2023-08-06T06:47:34;15.57;;;7.10;;
76636;SDS011;65532;52.124;5.480;2023-08-06T06:50:01;13.85;;;7.35;;
76636;SDS011;65532;52.124;5.480;2023-08-06T06:52:27;11.85;;;6.25;;
76636;SDS011;65532;52.124;5.480;2023-08-06T06:54:54;12.00;;;7.03;;
76636;SDS011;65532;52.124;5.480;2023-08-06T06:57:20;15.52;;;8.02;;
76636;SDS011;65532;52.124;5.480;2023-08-06T06:59:47;12.82;;;7.88;;
76636;SDS011;65532;52.124;5.480;2023-08-06T07:02:13;13.70;;;7.30;;
76636;SDS011;65532;52.124;5.480;2023-08-06T07:04:40;11.23;;;5.72;;
76636;SDS011;65532;52.124;5.480;2023-08-06T07:07:06;13.50;;;7.50;;
76636;SDS011;65532;52.124;5.480;2023-08-06T07:09:33;11.73;;;6.78;;
76636;SDS011;65532;52.124;5.480;2023-08-06T07:11:59;11.98;;;6.40;;
76636;SDS011;65532;52.124;5.480;2023-08-06T07:14:28;14.07;;;7.75;;
76636;SDS011;65532;52.124;5.480;2023-08-06T07:16:55;14.35;;;6.68;;
76636;SDS011;65532;52.124;5.480;2023-08-06T07:19:21;11.95;;;5.93;;
76636;SDS011;65532;52.124;5.480;2023-08-06T07:21:48;13.50;;;8.23;;
76636;SDS011;65532;52.124;5.480;2023-08-06T07:24:14;15.02;;;6.63;;
76636;SDS011;65532;52.124;5.480;2023-08-06T07:26:41;13.13;;;6.20;;
76636;SDS011;65532;52.124;5.480;2023-08-06T07:29:08;15.35;;;8.70;;
76636;SDS011;65532;52.124;5.480;2023-08-06T07:31:34;14.75;;;7.18;;
76636;SDS011;65532;52.124;5.480;2023-08-06T07:34:01;14.82;;;7.60;;
76636;SDS011;65532;52.124;5.480;2023-08-06T07:36:27;15.57;;;7.85;;
76636;SDS011;65532;52.124;5.480;2023-08-06T07:38:54;15.45;;;9.00;;
76636;SDS011;65532;52.124;5.480;2023-08-06T07:41:23;16.92;;;7.75;;
76636;SDS011;65532;52.124;5.480;2023-08-06T07:43:49;12.65;;;8.20;;
76636;SDS011;65532;52.124;5.480;2023-08-06T07:46:16;14.15;;;7.25;;
76636;SDS011;65532;52.124;5.480;2023-08-06T07:48:42;13.98;;;7.00;;
76636;SDS011;65532;52.124;5.480;2023-08-06T07:51:09;14.05;;;7.70;;
76636;SDS011;65532;52.124;5.480;2023-08-06T07:53:36;15.50;;;7.70;;
76636;SDS011;65532;52.124;5.480;2023-08-06T07:56:03;14.73;;;7.10;;
76636;SDS011;65532;52.124;5.480;2023-08-06T07:58:29;14.43;;;7.18;;
76636;SDS011;65532;52.124;5.480;2023-08-06T08:00:56;13.68;;;6.70;;
76636;SDS011;65532;52.124;5.480;2023-08-06T08:03:22;11.32;;;6.13;;
76636;SDS011;65532;52.124;5.480;2023-08-06T08:05:49;16.25;;;7.60;;
76636;SDS011;65532;52.124;5.480;2023-08-06T08:08:16;12.48;;;7.35;;
76636;SDS011;65532;52.124;5.480;2023-08-06T08:10:42;13.90;;;7.85;;
76636;SDS011;65532;52.124;5.480;2023-08-06T08:13:09;13.15;;;7.47;;
76636;SDS011;65532;52.124;5.480;2023-08-06T08:15:36;13.57;;;6.50;;
76636;SDS011;65532;52.124;5.480;2023-08-06T08:18:02;13.25;;;7.00;;
76636;SDS011;65532;52.124;5.480;2023-08-06T08:20:29;12.90;;;6.18;;
76636;SDS011;65532;52.124;5.480;2023-08-06T08:22:59;10.85;;;5.63;;
76636;SDS011;65532;52.124;5.480;2023-08-06T08:25:27;11.98;;;7.07;;
76636;SDS011;65532;52.124;5.480;2023-08-06T08:27:57;11.88;;;6.68;;
76636;SDS011;65532;52.124;5.480;2023-08-06T08:30:23;11.98;;;5.72;;
76636;SDS011;65532;52.124;5.480;2023-08-06T08:32:51;12.10;;;7.00;;
76636;SDS011;65532;52.124;5.480;2023-08-06T08:35:18;13.57;;;6.72;;
76636;SDS011;65532;52.124;5.480;2023-08-06T08:37:45;10.80;;;4.97;;
76636;SDS011;65532;52.124;5.480;2023-08-06T08:40:11;14.55;;;5.90;;
76636;SDS011;65532;52.124;5.480;2023-08-06T08:42:40;12.52;;;7.30;;
76636;SDS011;65532;52.124;5.480;2023-08-06T08:45:17;11.55;;;5.90;;
76636;SDS011;65532;52.124;5.480;2023-08-06T08:47:46;12.95;;;6.47;;
76636;SDS011;65532;52.124;5.480;2023-08-06T08:50:14;10.77;;;6.57;;
76636;SDS011;65532;52.124;5.480;2023-08-06T08:52:41;15.80;;;7.93;;
76636;SDS011;65532;52.124;5.480;2023-08-06T08:55:12;11.43;;;5.72;;
76636;SDS011;65532;52.124;5.480;2023-08-06T08:57:41;6.88;;;3.40;;
76636;SDS011;65532;52.124;5.480;2023-08-06T09:00:07;4.90;;;1.17;;
76636;SDS011;65532;52.124;5.480;2023-08-06T09:02:34;3.60;;;0.95;;
76636;SDS011;65532;52.124;5.480;2023-08-06T09:05:04;4.80;;;0.52;;
76636;SDS011;65532;52.124;5.480;2023-08-06T09:07:32;3.47;;;1.15;;
76636;SDS011;65532;52.124;5.480;2023-08-06T09:10:07;2.90;;;1.48;;
76636;SDS011;65532;52.124;5.480;2023-08-06T09:12:37;2.22;;;0.70;;
76636;SDS011;65532;52.124;5.480;2023-08-06T09:15:04;1.48;;;0.35;;
76636;SDS011;65532;52.124;5.480;2023-08-06T09:17:31;2.60;;;1.15;;
76636;SDS011;65532;52.124;5.480;2023-08-06T09:19:57;1.63;;;0.80;;
76636;SDS011;65532;52.124;5.480;2023-08-06T09:22:24;1.95;;;0.32;;
76636;SDS011;65532;52.124;5.480;2023-08-06T09:24:50;1.80;;;0.50;;
76636;SDS011;65532;52.124;5.480;2023-08-06T09:27:17;2.10;;;1.20;;
76636;SDS011;65532;52.124;5.480;2023-08-06T09:29:44;3.85;;;1.15;;
76636;SDS011;65532;52.124;5.480;2023-08-06T09:32:12;2.00;;;0.60;;
76636;SDS011;65532;52.124;5.480;2023-08-06T09:34:41;2.80;;;0.88;;
76636;SDS011;65532;52.124;5.480;2023-08-06T09:37:09;2.53;;;1.30;;
76636;SDS011;65532;52.124;5.480;2023-08-06T09:42:07;2.25;;;0.60;;
76636;SDS011;65532;52.124;5.480;2023-08-06T09:44:34;3.25;;;1.52;;
76636;SDS011;65532;52.124;5.480;2023-08-06T09:47:02;2.92;;;0.98;;
76636;SDS011;65532;52.124;5.480;2023-08-06T09:49:50;3.33;;;1.27;;
76636;SDS011;65532;52.124;5.480;2023-08-06T09:52:17;2.72;;;1.13;;
76636;SDS011;65532;52.124;5.480;2023-08-06T09:54:45;2.72;;;0.85;;
76636;SDS011;65532;52.124;5.480;2023-08-06T09:57:13;3.35;;;1.58;;
76636;SDS011;65532;52.124;5.480;2023-08-06T09:59:40;2.88;;;0.77;;
76636;SDS011;65532;52.124;5.480;2023-08-06T10:02:11;3.33;;;1.75;;
76636;SDS011;65532;52.124;5.480;2023-08-06T10:04:39;3.45;;;0.93;;
76636;SDS011;65532;52.124;5.480;2023-08-06T10:07:07;5.38;;;2.42;;
76636;SDS011;65532;52.124;5.480;2023-08-06T10:09:35;3.47;;;2.42;;
76636;SDS011;65532;52.124;5.480;2023-08-06T10:12:02;6.82;;;1.85;;
76636;SDS011;65532;52.124;5.480;2023-08-06T10:14:30;4.18;;;1.60;;
76636;SDS011;65532;52.124;5.480;2023-08-06T10:16:59;5.65;;;2.17;;
76636;SDS011;65532;52.124;5.480;2023-08-06T10:19:27;5.15;;;1.48;;
76636;SDS011;65532;52.124;5.480;2023-08-06T10:22:12;4.97;;;2.05;;
76636;SDS011;65532;52.124;5.480;2023-08-06T10:24:48;5.95;;;1.75;;
76636;SDS011;65532;52.124;5.480;2023-08-06T10:27:23;5.47;;;1.63;;
76636;SDS011;65532;52.124;5.480;2023-08-06T10:29:49;6.22;;;2.45;;
76636;SDS011;65532;52.124;5.480;2023-08-06T10:32:16;4.55;;;1.42;;
76636;SDS011;65532;52.124;5.480;2023-08-06T10:37:24;8.18;;;2.78;;
76636;SDS011;65532;52.124;5.480;2023-08-06T10:40:00;5.50;;;3.15;;
76636;SDS011;65532;52.124;5.480;2023-08-06T10:42:28;7.18;;;2.10;;
76636;SDS011;65532;52.124;5.480;2023-08-06T10:45:11;5.15;;;1.98;;
76636;SDS011;65532;52.124;5.480;2023-08-06T10:47:39;6.90;;;1.88;;
76636;SDS011;65532;52.124;5.480;2023-08-06T10:50:13;7.28;;;2.28;;
76636;SDS011;65532;52.124;5.480;2023-08-06T10:52:43;8.23;;;2.20;;
76636;SDS011;65532;52.124;5.480;2023-08-06T10:55:10;5.43;;;1.77;;
76636;SDS011;65532;52.124;5.480;2023-08-06T10:57:37;4.88;;;1.80;;
76636;SDS011;65532;52.124;5.480;2023-08-06T11:00:04;3.75;;;1.88;;
76636;SDS011;65532;52.124;5.480;2023-08-06T11:02:42;4.75;;;1.55;;
76636;SDS011;65532;52.124;5.480;2023-08-06T11:05:10;3.75;;;1.02;;
76636;SDS011;65532;52.124;5.480;2023-08-06T11:07:37;4.75;;;1.15;;
76636;SDS011;65532;52.124;5.480;2023-08-06T11:10:05;3.95;;;1.48;;
76636;SDS011;65532;52.124;5.480;2023-08-06T11:12:33;4.10;;;1.58;;
76636;SDS011;65532;52.124;5.480;2023-08-06T11:15:01;3.65;;;1.42;;
76636;SDS011;65532;52.124;5.480;2023-08-06T11:17:29;5.60;;;1.95;;
76636;SDS011;65532;52.124;5.480;2023-08-06T11:20:01;4.75;;;1.33;;
76636;SDS011;65532;52.124;5.480;2023-08-06T11:22:28;5.65;;;3.80;;
76636;SDS011;65532;52.124;5.480;2023-08-06T11:24:55;5.55;;;1.27;;
76636;SDS011;65532;52.124;5.480;2023-08-06T11:27:22;6.85;;;1.65;;
76636;SDS011;65532;52.124;5.480;2023-08-06T11:29:49;5.80;;;1.52;;
76636;SDS011;65532;52.124;5.480;2023-08-06T11:32:15;2.95;;;1.35;;
76636;SDS011;65532;52.124;5.480;2023-08-06T11:34:43;4.80;;;1.05;;
76636;SDS011;65532;52.124;5.480;2023-08-06T11:37:10;3.17;;;1.30;;
76636;SDS011;65532;52.124;5.480;2023-08-06T11:39:37;3.80;;;0.90;;
76636;SDS011;65532;52.124;5.480;2023-08-06T11:42:08;2.70;;;1.00;;
76636;SDS011;65532;52.124;5.480;2023-08-06T11:44:35;4.25;;;0.93;;
76636;SDS011;65532;52.124;5.480;2023-08-06T11:47:03;2.92;;;1.13;;
76636;SDS011;65532;52.124;5.480;2023-08-06T11:49:40;3.13;;;1.30;;
76636;SDS011;65532;52.124;5.480;2023-08-06T11:54:46;3.03;;;0.80;;
76636;SDS011;65532;52.124;5.480;2023-08-06T11:57:38;3.88;;;0.90;;
76636;SDS011;65532;52.124;5.480;2023-08-06T12:00:07;4.15;;;1.08;;
76636;SDS011;65532;52.124;5.480;2023-08-06T12:02:41;3.25;;;1.35;;
76636;SDS011;65532;52.124;5.480;2023-08-06T12:05:15;3.05;;;1.27;;
76636;SDS011;65532;52.124;5.480;2023-08-06T12:07:50;2.58;;;0.90;;
76636;SDS011;65532;52.124;5.480;2023-08-06T12:10:19;3.90;;;1.05;;
76636;SDS011;65532;52.124;5.480;2023-08-06T12:12:46;2.83;;;1.50;;
76636;SDS011;65532;52.124;5.480;2023-08-06T12:15:13;3.25;;;1.25;;
76636;SDS011;65532;52.124;5.480;2023-08-06T12:17:40;2.58;;;0.60;;
76636;SDS011;65532;52.124;5.480;2023-08-06T12:20:08;2.60;;;1.60;;
76636;SDS011;65532;52.124;5.480;2023-08-06T12:22:35;3.95;;;0.60;;
76636;SDS011;65532;52.124;5.480;2023-08-06T12:25:10;4.57;;;0.52;;
76636;SDS011;65532;52.124;5.480;2023-08-06T12:27:39;2.80;;;0.57;;
76636;SDS011;65532;52.124;5.480;2023-08-06T12:30:10;2.53;;;0.35;;
76636;SDS011;65532;52.124;5.480;2023-08-06T12:32:37;3.58;;;0.80;;
76636;SDS011;65532;52.124;5.480;2023-08-06T12:35:04;3.85;;;1.33;;
76636;SDS011;65532;52.124;5.480;2023-08-06T12:37:33;2.95;;;0.65;;
76636;SDS011;65532;52.124;5.480;2023-08-06T12:40:00;2.10;;;0.63;;
76636;SDS011;65532;52.124;5.480;2023-08-06T12:42:45;3.30;;;0.60;;
76636;SDS011;65532;52.124;5.480;2023-08-06T12:45:12;3.58;;;0.90;;
76636;SDS011;65532;52.124;5.480;2023-08-06T12:47:39;2.90;;;1.90;;
76636;SDS011;65532;52.124;5.480;2023-08-06T12:50:05;3.90;;;1.02;;
76636;SDS011;65532;52.124;5.480;2023-08-06T12:52:34;4.30;;;0.60;;
76636;SDS011;65532;52.124;5.480;2023-08-06T12:55:01;5.28;;;2.38;;
76636;SDS011;65532;52.124;5.480;2023-08-06T12:57:27;3.05;;;0.32;;
76636;SDS011;65532;52.124;5.480;2023-08-06T13:00:12;3.63;;;1.17;;
76636;SDS011;65532;52.124;5.480;2023-08-06T13:02:39;2.33;;;0.63;;
76636;SDS011;65532;52.124;5.480;2023-08-06T13:05:06;2.40;;;1.25;;
76636;SDS011;65532;52.124;5.480;2023-08-06T13:07:33;2.70;;;0.70;;
76636;SDS011;65532;52.124;5.480;2023-08-06T13:09:59;2.97;;;0.52;;
76636;SDS011;65532;52.124;5.480;2023-08-06T13:12:26;4.20;;;0.50;;
76636;SDS011;65532;52.124;5.480;2023-08-06T13:14:52;2.15;;;0.60;;
76636;SDS011;65532;52.124;5.480;2023-08-06T13:17:19;2.72;;;0.70;;
76636;SDS011;65532;52.124;5.480;2023-08-06T13:19:46;2.53;;;0.98;;
76636;SDS011;65532;52.124;5.480;2023-08-06T13:22:12;3.17;;;0.60;;
76636;SDS011;65532;52.124;5.480;2023-08-06T13:24:39;2.60;;;0.45;;
76636;SDS011;65532;52.124;5.480;2023-08-06T13:27:05;2.88;;;0.52;;
76636;SDS011;65532;52.124;5.480;2023-08-06T13:29:33;2.28;;;0.98;;
76636;SDS011;65532;52.124;5.480;2023-08-06T13:31:59;5.82;;;1.55;;
76636;SDS011;65532;52.124;5.480;2023-08-06T13:34:26;4.60;;;0.50;;
76636;SDS011;65532;52.124;5.480;2023-08-06T13:36:52;3.95;;;0.65;;
76636;SDS011;65532;52.124;5.480;2023-08-06T13:39:19;4.07;;;0.75;;
76636;SDS011;65532;52.124;5.480;2023-08-06T13:41:46;2.10;;;0.40;;
76636;SDS011;65532;52.124;5.480;2023-08-06T13:44:12;3.28;;;1.27;;
76636;SDS011;65532;52.124;5.480;2023-08-06T13:46:41;4.13;;;1.42;;
76636;SDS011;65532;52.124;5.480;2023-08-06T13:49:07;3.47;;;1.27;;
76636;SDS011;65532;52.124;5.480;2023-08-06T13:51:34;3.17;;;0.73;;
76636;SDS011;65532;52.124;5.480;2023-08-06T13:54:02;3.33;;;0.80;;
76636;SDS011;65532;52.124;5.480;2023-08-06T13:56:28;3.38;;;0.88;;
76636;SDS011;65532;52.124;5.480;2023-08-06T13:58:58;5.20;;;1.38;;
76636;SDS011;65532;52.124;5.480;2023-08-06T14:01:25;2.53;;;1.13;;
76636;SDS011;65532;52.124;5.480;2023-08-06T14:04:08;3.28;;;0.88;;
76636;SDS011;65532;52.124;5.480;2023-08-06T14:06:36;4.18;;;1.38;;
76636;SDS011;65532;52.124;5.480;2023-08-06T14:09:02;4.93;;;1.00;;
76636;SDS011;65532;52.124;5.480;2023-08-06T14:11:29;2.80;;;0.52;;
76636;SDS011;65532;52.124;5.480;2023-08-06T14:13:56;3.80;;;0.60;;
76636;SDS011;65532;52.124;5.480;2023-08-06T14:16:22;2.50;;;0.73;;
76636;SDS011;65532;52.124;5.480;2023-08-06T14:18:49;2.10;;;0.88;;
76636;SDS011;65532;52.124;5.480;2023-08-06T14:21:15;2.95;;;0.70;;
76636;SDS011;65532;52.124;5.480;2023-08-06T14:23:42;3.70;;;0.82;;
76636;SDS011;65532;52.124;5.480;2023-08-06T14:26:09;2.83;;;0.88;;
76636;SDS011;65532;52.124;5.480;2023-08-06T14:28:37;3.60;;;1.70;;
76636;SDS011;65532;52.124;5.480;2023-08-06T14:31:03;2.72;;;1.55;;
76636;SDS011;65532;52.124;5.480;2023-08-06T14:33:30;3.03;;;0.88;;
76636;SDS011;65532;52.124;5.480;2023-08-06T14:35:56;3.17;;;1.38;;
76636;SDS011;65532;52.124;5.480;2023-08-06T14:38:23;3.90;;;0.75;;
76636;SDS011;65532;52.124;5.480;2023-08-06T14:40:49;3.63;;;0.43;;
76636;SDS011;65532;52.124;5.480;2023-08-06T14:43:16;2.42;;;0.73;;
76636;SDS011;65532;52.124;5.480;2023-08-06T14:45:44;2.47;;;0.80;;
76636;SDS011;65532;52.124;5.480;2023-08-06T14:48:11;5.45;;;1.80;;
76636;SDS011;65532;52.124;5.480;2023-08-06T14:50:38;2.75;;;0.57;;
76636;SDS011;65532;52.124;5.480;2023-08-06T14:53:05;2.38;;;0.93;;
76636;SDS011;65532;52.124;5.480;2023-08-06T14:55:32;3.42;;;1.00;;
76636;SDS011;65532;52.124;5.480;2023-08-06T14:58:00;2.63;;;1.38;;
76636;SDS011;65532;52.124;5.480;2023-08-06T15:00:27;4.30;;;0.82;;